Terminal Aerodrome Forecast
Issued by NWS Bismarck, ND

Home | Current Version | Previous Version | Graphics & Text | Print | Product List | Glossary On
Versions: 1 2 3 4 5 6 7 8 9 10 11 12 13 14 15 16 17 18 19 20 21 22 23
000
FTUS43 KBIS 301100
TAFBIS
TAF
KBIS 301139Z 3012/0112 09010KT P6SM SCT008 OVC013
     FM301500 11015KT P6SM -SHRA OVC008
     FM301900 11016G24KT 4SM -SHRA VCTS BKN012 OVC025CB
     FM010100 VRB05KT 3SM -SHRA BKN008 OVC012
     FM010600 27014G20KT 3SM -SHRA BKN008 OVC013=

USA.gov is the U.S. government's official web portal to all federal, state and local government web resources and services.